I2476 LIEA-LIEO
Flight info
| Callsign | I2476 |
|---|---|
| Flight time | N/A |
| Altitude | 20000 |
| Route | MINK6X MINKA MINK3R |
| Aircraft | A320/M-S/7123 |
Departure
| Time | N/A |
|---|---|
| Airport | Alghero-Fertilia Airport (LIEA) |
Arrival
| Time | 2026-05-07 16:24 |
|---|---|
| Airport | Olbia Costa Smeralda Airport (LIEO) |
| Time | Latitude | Longitude | Altitude | Speed | Heading |
|---|---|---|---|---|---|
| 2026-05-07 15:54 | 40.62138 | 8.28432 | 0 ft | 0 kts | 24° |
| 2026-05-07 15:55 | 40.62139 | 8.28433 | 0 ft | 1 kts | 24° |
| 2026-05-07 15:55 | 40.62342 | 8.28555 | 0 ft | 70 kts | 24° |
| 2026-05-07 15:56 | 40.62893 | 8.28884 | 0 ft | 127 kts | 24° |
| 2026-05-07 15:56 | 40.63725 | 8.29380 | 0 ft | 162 kts | 24° |
| 2026-05-07 15:56 | 40.64810 | 8.30029 | 0 ft | 208 kts | 24° |
| 2026-05-07 15:56 | 40.66036 | 8.30764 | 0 ft | 230 kts | 24° |
| 2026-05-07 15:57 | 40.67422 | 8.31599 | 0 ft | 231 kts | 24° |
| 2026-05-07 15:57 | 40.68840 | 8.32454 | 0 ft | 235 kts | 24° |
| 2026-05-07 15:57 | 40.70206 | 8.33276 | 0 ft | 237 kts | 24° |
| 2026-05-07 15:57 | 40.71586 | 8.34109 | 0 ft | 239 kts | 24° |
| 2026-05-07 15:58 | 40.72950 | 8.34932 | 0 ft | 242 kts | 24° |
| 2026-05-07 15:58 | 40.74340 | 8.35771 | 0 ft | 244 kts | 24° |
| 2026-05-07 15:58 | 40.75824 | 8.36667 | 0 ft | 246 kts | 24° |
| 2026-05-07 15:58 | 40.77273 | 8.37618 | 0 ft | 249 kts | 37° |
| 2026-05-07 15:59 | 40.78339 | 8.39141 | 0 ft | 253 kts | 54° |
| 2026-05-07 15:59 | 40.79277 | 8.41123 | 0 ft | 256 kts | 61° |
| 2026-05-07 15:59 | 40.80068 | 8.43150 | 0 ft | 257 kts | 64° |
| 2026-05-07 15:59 | 40.80759 | 8.45174 | 0 ft | 260 kts | 67° |
| 2026-05-07 16:00 | 40.81407 | 8.47267 | 0 ft | 263 kts | 69° |
| 2026-05-07 16:00 | 40.82034 | 8.49438 | 0 ft | 265 kts | 69° |
| 2026-05-07 16:00 | 40.82629 | 8.51596 | 0 ft | 268 kts | 70° |
| 2026-05-07 16:00 | 40.83225 | 8.53811 | 0 ft | 285 kts | 70° |
| 2026-05-07 16:01 | 40.83853 | 8.56184 | 0 ft | 286 kts | 71° |
| 2026-05-07 16:01 | 40.84312 | 8.58607 | 0 ft | 289 kts | 83° |
| 2026-05-07 16:01 | 40.84442 | 8.61067 | 0 ft | 292 kts | 89° |
| 2026-05-07 16:01 | 40.84410 | 8.63637 | 0 ft | 294 kts | 93° |
| 2026-05-07 16:02 | 40.84264 | 8.66303 | 0 ft | 294 kts | 96° |
| 2026-05-07 16:02 | 40.84049 | 8.68860 | 0 ft | 296 kts | 97° |
| 2026-05-07 16:02 | 40.83775 | 8.71478 | 0 ft | 300 kts | 98° |
| 2026-05-07 16:02 | 40.83506 | 8.73741 | 0 ft | 301 kts | 99° |
| 2026-05-07 16:03 | 40.83179 | 8.76298 | 0 ft | 304 kts | 100° |
| 2026-05-07 16:03 | 40.82817 | 8.78991 | 0 ft | 307 kts | 100° |
| 2026-05-07 16:03 | 40.82612 | 8.81732 | 0 ft | 310 kts | 82° |
| 2026-05-07 16:03 | 40.83092 | 8.84401 | 0 ft | 316 kts | 70° |
| 2026-05-07 16:04 | 40.83920 | 8.86989 | 0 ft | 313 kts | 63° |
| 2026-05-07 16:04 | 40.84936 | 8.89427 | 0 ft | 321 kts | 58° |
| 2026-05-07 16:04 | 40.86149 | 8.91837 | 0 ft | 324 kts | 54° |
| 2026-05-07 16:04 | 40.87447 | 8.94175 | 0 ft | 338 kts | 53° |
| 2026-05-07 16:05 | 40.88840 | 8.96628 | 0 ft | 353 kts | 53° |
| 2026-05-07 16:05 | 40.90337 | 8.99263 | 0 ft | 369 kts | 53° |
| 2026-05-07 16:05 | 40.91865 | 9.01986 | 0 ft | 383 kts | 53° |
| 2026-05-07 16:05 | 40.93405 | 9.04771 | 0 ft | 397 kts | 54° |
| 2026-05-07 16:06 | 40.95048 | 9.07792 | 0 ft | 410 kts | 54° |
| 2026-05-07 16:06 | 40.96694 | 9.10862 | 0 ft | 421 kts | 54° |
| 2026-05-07 16:06 | 40.98317 | 9.13917 | 0 ft | 430 kts | 54° |
| 2026-05-07 16:06 | 41.00017 | 9.17136 | 0 ft | 433 kts | 55° |
| 2026-05-07 16:07 | 41.01681 | 9.20299 | 0 ft | 440 kts | 55° |
| 2026-05-07 16:07 | 41.03346 | 9.23496 | 0 ft | 435 kts | 57° |
| 2026-05-07 16:07 | 41.04475 | 9.26986 | 0 ft | 413 kts | 78° |
| 2026-05-07 16:07 | 41.04513 | 9.30546 | 0 ft | 394 kts | 101° |
| 2026-05-07 16:08 | 41.03587 | 9.33784 | 0 ft | 377 kts | 118° |
| 2026-05-07 16:08 | 41.02130 | 9.36548 | 0 ft | 363 kts | 137° |
| 2026-05-07 16:08 | 41.00152 | 9.38180 | 0 ft | 350 kts | 162° |
| 2026-05-07 16:08 | 40.97860 | 9.38489 | 0 ft | 339 kts | 189° |
| 2026-05-07 16:09 | 40.95746 | 9.37372 | 0 ft | 329 kts | 218° |
| 2026-05-07 16:09 | 40.94319 | 9.35195 | 0 ft | 315 kts | 238° |
| 2026-05-07 16:09 | 40.93290 | 9.32840 | 0 ft | 297 kts | 242° |
| 2026-05-07 16:09 | 40.92357 | 9.30572 | 0 ft | 282 kts | 242° |
| 2026-05-07 16:10 | 40.91455 | 9.28402 | 0 ft | 279 kts | 241° |
| 2026-05-07 16:10 | 40.90523 | 9.26295 | 0 ft | 277 kts | 238° |
| 2026-05-07 16:10 | 40.89531 | 9.24246 | 0 ft | 275 kts | 237° |
| 2026-05-07 16:10 | 40.88497 | 9.22223 | 0 ft | 273 kts | 236° |
| 2026-05-07 16:11 | 40.87446 | 9.20227 | 0 ft | 271 kts | 235° |
| 2026-05-07 16:11 | 40.86378 | 9.18227 | 0 ft | 269 kts | 235° |
| 2026-05-07 16:11 | 40.85320 | 9.16251 | 0 ft | 268 kts | 235° |
| 2026-05-07 16:11 | 40.84316 | 9.14368 | 0 ft | 266 kts | 235° |
| 2026-05-07 16:12 | 40.83261 | 9.12385 | 0 ft | 264 kts | 235° |
| 2026-05-07 16:12 | 40.82233 | 9.10451 | 0 ft | 271 kts | 235° |
| 2026-05-07 16:12 | 40.81216 | 9.08539 | 0 ft | 266 kts | 235° |
| 2026-05-07 16:12 | 40.80168 | 9.06566 | 0 ft | 264 kts | 235° |
| 2026-05-07 16:13 | 40.79160 | 9.04664 | 0 ft | 262 kts | 235° |
| 2026-05-07 16:13 | 40.78183 | 9.02823 | 0 ft | 261 kts | 235° |
| 2026-05-07 16:13 | 40.77209 | 9.00990 | 0 ft | 259 kts | 235° |
| 2026-05-07 16:13 | 40.76084 | 8.99279 | 0 ft | 258 kts | 212° |
| 2026-05-07 16:14 | 40.74436 | 8.98625 | 0 ft | 254 kts | 175° |
| 2026-05-07 16:14 | 40.72809 | 8.99073 | 0 ft | 244 kts | 162° |
| 2026-05-07 16:14 | 40.71226 | 8.99882 | 0 ft | 255 kts | 155° |
| 2026-05-07 16:14 | 40.69691 | 9.00919 | 0 ft | 255 kts | 150° |
| 2026-05-07 16:15 | 40.68212 | 9.02117 | 0 ft | 253 kts | 143° |
| 2026-05-07 16:15 | 40.67162 | 9.03847 | 0 ft | 252 kts | 106° |
| 2026-05-07 16:15 | 40.67064 | 9.06033 | 0 ft | 233 kts | 81° |
| 2026-05-07 16:15 | 40.67389 | 9.08021 | 0 ft | 214 kts | 72° |
| 2026-05-07 16:16 | 40.67882 | 9.09775 | 0 ft | 198 kts | 63° |
| 2026-05-07 16:16 | 40.68635 | 9.11286 | 0 ft | 197 kts | 53° |
| 2026-05-07 16:16 | 40.69345 | 9.12650 | 0 ft | 187 kts | 56° |
| 2026-05-07 16:16 | 40.70138 | 9.14190 | 0 ft | 217 kts | 55° |
| 2026-05-07 16:17 | 40.70944 | 9.15733 | 0 ft | 211 kts | 55° |
| 2026-05-07 16:17 | 40.71769 | 9.17306 | 0 ft | 212 kts | 55° |
| 2026-05-07 16:17 | 40.72595 | 9.18883 | 0 ft | 211 kts | 55° |
| 2026-05-07 16:17 | 40.73434 | 9.20485 | 0 ft | 207 kts | 55° |
| 2026-05-07 16:18 | 40.74244 | 9.22028 | 0 ft | 193 kts | 55° |
| 2026-05-07 16:18 | 40.75001 | 9.23470 | 0 ft | 195 kts | 55° |
| 2026-05-07 16:18 | 40.75721 | 9.24838 | 0 ft | 197 kts | 55° |
| 2026-05-07 16:18 | 40.76460 | 9.26244 | 0 ft | 196 kts | 55° |
| 2026-05-07 16:19 | 40.77151 | 9.27557 | 0 ft | 196 kts | 55° |
| 2026-05-07 16:19 | 40.77851 | 9.28886 | 0 ft | 196 kts | 55° |
| 2026-05-07 16:19 | 40.78547 | 9.30210 | 0 ft | 196 kts | 55° |
| 2026-05-07 16:19 | 40.79226 | 9.31500 | 0 ft | 196 kts | 55° |
| 2026-05-07 16:20 | 40.79949 | 9.32875 | 0 ft | 199 kts | 55° |
| 2026-05-07 16:20 | 40.80617 | 9.34147 | 0 ft | 196 kts | 55° |
| 2026-05-07 16:20 | 40.81341 | 9.35526 | 0 ft | 195 kts | 55° |
| 2026-05-07 16:20 | 40.82021 | 9.36821 | 0 ft | 193 kts | 54° |
| 2026-05-07 16:21 | 40.82689 | 9.38090 | 0 ft | 183 kts | 55° |
| 2026-05-07 16:21 | 40.83349 | 9.39346 | 0 ft | 160 kts | 55° |
| 2026-05-07 16:21 | 40.83878 | 9.40354 | 0 ft | 146 kts | 54° |
| 2026-05-07 16:21 | 40.84392 | 9.41331 | 0 ft | 147 kts | 54° |
| 2026-05-07 16:22 | 40.84912 | 9.42322 | 0 ft | 131 kts | 55° |
| 2026-05-07 16:22 | 40.85370 | 9.43196 | 0 ft | 129 kts | 54° |
| 2026-05-07 16:22 | 40.85835 | 9.44078 | 0 ft | 131 kts | 54° |
| 2026-05-07 16:22 | 40.86343 | 9.45046 | 0 ft | 138 kts | 54° |
| 2026-05-07 16:23 | 40.86895 | 9.46098 | 0 ft | 142 kts | 54° |
| 2026-05-07 16:23 | 40.87432 | 9.47122 | 0 ft | 134 kts | 54° |
| 2026-05-07 16:23 | 40.87929 | 9.48072 | 0 ft | 131 kts | 55° |
| 2026-05-07 16:23 | 40.88425 | 9.49015 | 0 ft | 125 kts | 54° |
| 2026-05-07 16:24 | 40.88911 | 9.49943 | 0 ft | 127 kts | 54° |
| 2026-05-07 16:24 | 40.89350 | 9.50781 | 0 ft | 118 kts | 55° |
| 2026-05-07 16:24 | 40.89690 | 9.51426 | 0 ft | 60 kts | 55° |
| 2026-05-07 16:24 | 40.89884 | 9.51797 | 0 ft | 46 kts | 55° |
| 2026-05-07 16:25 | 40.90028 | 9.52010 | 0 ft | 28 kts | 24° |
| 2026-05-07 16:25 | 40.90159 | 9.51989 | 0 ft | 19 kts | 290° |
| 2026-05-07 16:25 | 40.90187 | 9.51857 | 0 ft | 14 kts | 278° |
| 2026-05-07 16:25 | 40.90216 | 9.51804 | 0 ft | 5 kts | 310° |
| 2026-05-07 16:26 | 40.90219 | 9.51783 | 0 ft | 4 kts | 265° |
| 2026-05-07 16:26 | 40.90201 | 9.51712 | 0 ft | 9 kts | 233° |
| 2026-05-07 16:26 | 40.90197 | 9.51675 | 0 ft | 2 kts | 291° |
| 2026-05-07 16:26 | 40.90205 | 9.51657 | 0 ft | 4 kts | 305° |
| 2026-05-07 16:27 | 40.90213 | 9.51643 | 0 ft | 0 kts | 307° |